Flight Track Log - Related Links

Times and Time Zones

All times are in EDT time to prevent confusion due to time zone crossing. See the N662US flight status page for this flight to view local times or setup timezone preferences in your user account.

Time Position Orientation Groundspeed Altitude Reporting Facility
EDT Latitude Longitude Course Direction KTS MPH feet Rate Location/Type
Mon 07:46:00 AM 35.7407 140.2384 259° West  Level Estimated
Mon 07:46:07 AM 35.7280 140.4020 259° West 172 198 1,500  Level FlightAware ADS-B
Mon 07:46:37 AM 35.7070 140.4170 150° Southeast 171 197 2,800 2,291 Climbing FlightAware ADS-B
Mon 07:47:02 AM 35.6890 140.4300 150° Southeast 179 206 3,600 1,418 Climbing FlightAware ADS-B
Mon 07:47:32 AM 35.6660 140.4470 149° Southeast 222 255 4,100 1,300 Climbing FlightAware ADS-B
Mon 07:48:02 AM 35.6380 140.4670 150° Southeast 255 293 4,900 2,291 Climbing FlightAware ADS-B
Mon 07:48:27 AM 35.6100 140.4860 151° Southeast 264 304 6,200 3,164 Climbing FlightAware ADS-B
Mon 07:48:57 AM 35.5750 140.5030 158° South 275 316 7,800 3,164 Climbing FlightAware ADS-B
Mon 07:49:22 AM 35.5450 140.4870 203° Southwest 287 330 9,100 3,150 Climbing FlightAware ADS-B
Mon 07:49:37 AM 35.5350 140.4660 240° Southwest 291 335 9,900 3,120 Climbing FlightAware ADS-B
Mon 07:49:47 AM 35.5320 140.4490 258° West 294 338 10,400 2,400 Climbing FlightAware ADS-B
Mon 07:50:07 AM 35.5380 140.4170 283° West 314 361 11,100 1,800 Climbing FlightAware ADS-B
Mon 07:50:17 AM 35.5450 140.4030 302° West 326 375 11,300 1,680 Climbing FlightAware ADS-B
Mon 07:50:32 AM 35.5650 140.3830 321° Northwest 349 402 11,800 1,964 Climbing FlightAware ADS-B
Mon 07:51:12 AM 35.6300 140.3470 336° Northwest 391 450 13,100 2,541 Climbing FlightAware ADS-B
Mon 07:51:57 AM 35.7060 140.3060 336° Northwest 410 472 15,400 3,040 Climbing FlightAware ADS-B
Mon 07:52:27 AM 35.7540 140.2680 327° Northwest 414 476 16,900 2,945 Climbing FlightAware ADS-B
Mon 07:52:52 AM 35.7770 140.2220 302° West 411 473 18,100 2,829 Climbing FlightAware ADS-B
Mon 07:53:37 AM 35.7840 140.1150 275° West 419 482 20,200 2,612 Climbing FlightAware ADS-B
Mon 07:54:17 AM 35.7830 140.0230 269° West 429 494 21,800 2,268 Climbing FlightAware ADS-B
Mon 07:54:59 AM 35.7820 139.9240 269° West 441 507 23,300 2,169 Climbing FlightAware ADS-B
Mon 07:55:40 AM 35.7810 139.8120 269° West 453 521 24,800 2,148 Climbing FlightAware ADS-B
Mon 07:56:20 AM 35.7770 139.7080 267° West 462 532 26,200 2,207 Climbing FlightAware ADS-B
Mon 07:57:07 AM 35.7650 139.5850 263° West 463 533 28,000 2,414 Climbing FlightAware ADS-B
Mon 07:57:47 AM 35.7500 139.4820 260° West 456 525 29,700 2,338 Climbing FlightAware ADS-B
Mon 07:58:24 AM 35.7380 139.3890 261° West 455 524 31,000 2,259 Climbing FlightAware ADS-B
Mon 07:59:12 AM 35.7240 139.2860 261° West 439 505 32,900 2,225 Climbing FlightAware ADS-B
Mon 07:59:53 AM 35.7080 139.1730 260° West 438 504 34,300 1,571 Climbing FlightAware ADS-B
Mon 08:00:36 AM 35.6910 139.0590 260° West 446 513 35,100 1,050 Climbing FlightAware ADS-B
Mon 08:01:13 AM 35.6780 138.9680 260° West 453 521 35,700 940 Climbing FlightAware ADS-B
Mon 08:01:59 AM 35.6610 138.8480 260° West 461 531 36,400 837 Climbing FlightAware ADS-B
Mon 08:02:39 AM 35.6460 138.7460 260° West 468 539 36,900 815 Climbing FlightAware ADS-B
Mon 08:03:20 AM 35.6300 138.6380 260° West 471 542 37,500 786 Climbing FlightAware ADS-B
Mon 08:04:03 AM 35.6130 138.5240 260° West 476 548 38,000 337 Climbing FlightAware ADS-B
Mon 08:04:49 AM 35.5950 138.3990 260° West 478 550 38,000  Level FlightAware ADS-B
Mon 08:05:30 AM 35.5780 138.2920 259° West 476 548 38,000  Level FlightAware ADS-B
Mon 08:06:10 AM 35.5610 138.1830 259° West 477 549 38,000  Level FlightAware ADS-B
Mon 08:06:51 AM 35.5450 138.0740 260° West 477 549 38,000  Level FlightAware ADS-B
Mon 08:07:35 AM 35.5270 137.9590 259° West 477 549 38,000  Level FlightAware ADS-B
Mon 08:08:20 AM 35.5080 137.8360 259° West 477 549 38,000  Level FlightAware ADS-B
Mon 08:08:56 AM 35.4930 137.7400 259° West 477 549 38,000  Level FlightAware ADS-B
Mon 08:09:37 AM 35.4760 137.6330 259° West 478 550 38,000  Level FlightAware ADS-B
Mon 08:10:21 AM 35.4570 137.5130 259° West 477 549 38,000  Level FlightAware ADS-B
Mon 08:11:20 AM 35.4330 137.3590 259° West 477 549 38,000  Level FlightAware ADS-B
Mon 08:12:14 AM 35.4120 137.2310 259° West 478 550 38,000  Level FlightAware ADS-B
Mon 08:12:59 AM 35.3890 137.0870 259° West 479 551 38,000  Level FlightAware ADS-B
Mon 08:13:39 AM 35.3710 136.9780 259° West 481 554 38,000  Level FlightAware ADS-B
Mon 08:14:19 AM 35.3540 136.8700 259° West 484 557 38,000  Level FlightAware ADS-B
Mon 08:15:04 AM 35.3340 136.7490 259° West 486 559 38,000  Level FlightAware ADS-B
Mon 08:15:42 AM 35.3170 136.6490 258° West 487 560 38,000  Level FlightAware ADS-B
Mon 08:16:22 AM 35.3000 136.5460 259° West 488 562 38,000  Level FlightAware ADS-B
Mon 08:17:07 AM 35.2790 136.4220 258° West 487 560 38,000  Level FlightAware ADS-B
Mon 08:17:47 AM 35.2610 136.3110 259° West 488 562 38,000  Level FlightAware ADS-B
Mon 08:18:32 AM 35.2390 136.1870 258° West 488 562 38,000  Level FlightAware ADS-B
Mon 08:19:17 AM 35.2210 136.0650 260° West 487 560 38,000  Level FlightAware ADS-B
Mon 08:19:58 AM 35.2060 135.9600 260° West 488 562 38,000  Level FlightAware ADS-B
Mon 08:20:37 AM 35.1900 135.8480 260° West 490 564 38,000  Level FlightAware ADS-B
Mon 08:21:22 AM 35.1710 135.7250 259° West 493 567 38,000  Level FlightAware ADS-B
Mon 08:22:02 AM 35.1520 135.6160 258° West 494 568 38,000  Level FlightAware ADS-B
Mon 08:22:48 AM 35.1310 135.4930 258° West 496 571 38,000  Level FlightAware ADS-B
Mon 08:23:23 AM 35.1140 135.3970 258° West 497 572 38,000  Level FlightAware ADS-B
Mon 08:24:08 AM 35.0940 135.2820 258° West 497 572 38,000  Level FlightAware ADS-B
Mon 08:24:53 AM 35.0720 135.1500 259° West 498 573 38,000  Level FlightAware ADS-B
Mon 08:25:34 AM 35.0530 135.0400 258° West 498 573 38,000  Level FlightAware ADS-B
Mon 08:26:17 AM 35.0310 134.9170 258° West 498 573 38,000  Level FlightAware ADS-B
Mon 08:26:58 AM 35.0120 134.8060 258° West 500 575 38,000  Level FlightAware ADS-B
Mon 08:27:42 AM 34.9900 134.6820 258° West 501 577 38,000  Level FlightAware ADS-B
Mon 08:28:18 AM 34.9720 134.5860 257° West 502 578 38,000  Level FlightAware ADS-B
Mon 08:29:02 AM 34.9470 134.4630 256° West 501 577 38,000  Level FlightAware ADS-B
Mon 08:29:47 AM 34.9220 134.3390 256° West 502 578 38,000  Level FlightAware ADS-B
Mon 08:30:28 AM 34.9000 134.2330 256° West 501 577 38,000  Level FlightAware ADS-B
Mon 08:31:12 AM 34.8750 134.1070 256° West 500 575 38,000  Level FlightAware ADS-B
Mon 08:31:53 AM 34.8530 133.9980 256° West 500 575 38,000  Level FlightAware ADS-B
Mon 08:32:32 AM 34.8320 133.8910 257° West 500 575 38,000  Level FlightAware ADS-B
Mon 08:33:17 AM 34.8060 133.7660 256° West 500 575 38,000  Level FlightAware ADS-B
Mon 08:33:58 AM 34.7830 133.6570 256° West 499 574 38,000  Level FlightAware ADS-B
Mon 08:34:42 AM 34.7570 133.5350 255° West 498 573 38,000  Level FlightAware ADS-B
Mon 08:35:23 AM 34.7340 133.4320 255° West 498 573 38,000  Level FlightAware ADS-B
Mon 08:36:04 AM 34.7090 133.3150 255° West 499 574 38,000  Level FlightAware ADS-B
Mon 08:36:44 AM 34.6860 133.2040 256° West 496 571 38,000  Level FlightAware ADS-B
Mon 08:37:24 AM 34.6630 133.1000 255° West 494 568 38,000  Level FlightAware ADS-B
Mon 08:38:08 AM 34.6430 133.0060 256° West 494 568 38,000  Level FlightAware ADS-B
Mon 08:38:49 AM 34.6130 132.8720 255° West 492 566 38,000  Level FlightAware ADS-B
Mon 08:39:34 AM 34.5870 132.7520 255° West 490 564 38,000  Level FlightAware ADS-B
Mon 08:40:14 AM 34.5640 132.6460 255° West 489 563 38,000  Level FlightAware ADS-B
Mon 08:40:54 AM 34.5400 132.5400 255° West 491 565 38,000  Level FlightAware ADS-B
Mon 08:41:39 AM 34.5100 132.4220 253° West 493 567 38,000  Level FlightAware ADS-B
Mon 08:42:19 AM 34.4720 132.3210 245° Southwest 496 571 38,000  Level FlightAware ADS-B
Mon 08:43:04 AM 34.4290 132.2110 245° Southwest 496 571 38,000  Level FlightAware ADS-B
Mon 08:43:49 AM 34.3830 132.0980 244° Southwest 496 571 38,000  Level FlightAware ADS-B
Mon 08:44:24 AM 34.3480 132.0140 243° Southwest 497 572 38,000  Level FlightAware ADS-B
Mon 08:45:09 AM 34.3010 131.8960 244° Southwest 498 573 38,000  Level FlightAware ADS-B
Mon 08:45:54 AM 34.2560 131.7840 244° Southwest 498 573 38,000  Level FlightAware ADS-B
Mon 08:46:34 AM 34.2150 131.6840 244° Southwest 498 573 38,000  Level FlightAware ADS-B
Mon 08:47:14 AM 34.1740 131.5820 244° Southwest 497 572 38,000  Level FlightAware ADS-B
Mon 08:47:59 AM 34.1280 131.4730 243° Southwest 496 571 38,000  Level FlightAware ADS-B
Mon 08:48:34 AM 34.0920 131.3860 243° Southwest 496 571 38,000  Level FlightAware ADS-B
Mon 08:49:24 AM 34.0420 131.2620 244° Southwest 496 571 38,000  Level FlightAware ADS-B
Mon 08:50:06 AM 34.0000 131.1640 243° Southwest 496 571 38,000  Level FlightAware ADS-B
Mon 08:50:48 AM 33.9580 131.0620 244° Southwest 496 571 38,000  Level FlightAware ADS-B
Mon 08:51:30 AM 33.9160 130.9590 244° Southwest 496 571 38,000  Level FlightAware ADS-B
Mon 08:52:10 AM 33.8730 130.8550 244° Southwest 496 571 38,000  Level FlightAware ADS-B
Mon 08:52:50 AM 33.8310 130.7570 243° Southwest 496 571 38,000  Level FlightAware ADS-B
Mon 08:53:37 AM 33.7820 130.6410 243° Southwest 491 565 38,000  Level FlightAware ADS-B
Mon 08:54:13 AM 33.7520 130.5700 243° Southwest 495 570 38,000  Level FlightAware ADS-B
Mon 08:54:54 AM 33.7080 130.4650 243° Southwest 494 568 38,000  Level FlightAware ADS-B
Mon 08:55:35 AM 33.6680 130.3630 245° Southwest 493 567 38,000  Level FlightAware ADS-B
Mon 08:56:24 AM 33.6220 130.2470 245° Southwest 495 570 38,000  Level FlightAware ADS-B
Mon 08:57:02 AM 33.5850 130.1520 245° Southwest 495 570 38,000  Level FlightAware ADS-B
Mon 08:57:49 AM 33.5350 130.0260 245° Southwest 496 571 38,000  Level FlightAware ADS-B
Mon 08:58:28 AM 33.5020 129.9440 244° Southwest 497 572 38,000  Level FlightAware ADS-B
Mon 08:59:14 AM 33.4450 129.8050 244° Southwest 498 573 38,000  Level FlightAware ADS-B
Mon 09:00:02 AM 33.3990 129.6910 244° Southwest 500 575 38,000  Level FlightAware ADS-B
Mon 09:00:45 AM 33.3580 129.5890 244° Southwest 500 575 38,000  Level FlightAware ADS-B
Mon 09:02:16 AM 33.2770 129.3920 244° Southwest 500 575 38,000  Level FlightAware ADS-B
Mon 09:02:53 AM 33.2360 129.2910 244° Southwest 497 572 38,000  Level FlightAware ADS-B
Mon 09:03:34 AM 33.1830 129.1640 244° Southwest 497 572 38,000  Level FlightAware ADS-B
Mon 09:04:19 AM 33.1370 129.0530 244° Southwest 497 572 38,000  Level FlightAware ADS-B
Mon 09:04:59 AM 33.1010 128.9640 244° Southwest 495 570 38,000  Level FlightAware ADS-B
Mon 09:05:37 AM 33.0680 128.8850 244° Southwest 495 570 38,000  Level FlightAware ADS-B
Mon 09:06:25 AM 33.0270 128.7850 244° Southwest 495 570 38,000  Level FlightAware ADS-B
Mon 09:07:02 AM 32.9960 128.7070 245° Southwest 495 570 38,000  Level FlightAware ADS-B
Mon 09:07:49 AM 32.9560 128.6090 244° Southwest 495 570 38,000  Level FlightAware ADS-B
Mon 09:08:26 AM 32.9240 128.5320 244° Southwest 495 570 38,000  Level FlightAware ADS-B
Mon 09:09:14 AM 32.8830 128.4320 244° Southwest 495 570 38,000  Level FlightAware ADS-B
Mon 09:09:49 AM 32.8530 128.3590 244° Southwest 495 570 38,000  Level FlightAware ADS-B
Mon 09:10:37 AM 32.8120 128.2590 244° Southwest 495 570 38,000  Level FlightAware ADS-B
Mon 09:11:13 AM 32.7810 128.1840 244° Southwest 495 570 38,000  Level FlightAware ADS-B
Mon 09:12:03 AM 32.7390 128.0800 244° Southwest 495 570 38,000  Level FlightAware ADS-B
Mon 09:12:39 AM 32.7080 128.0060 244° Southwest 495 570 38,000  Level FlightAware ADS-B
Mon 09:13:27 AM 32.6670 127.9060 244° Southwest 495 570 38,000  Level FlightAware ADS-B
Mon 09:14:03 AM 32.6360 127.8310 244° Southwest 495 570 38,000 -744 Level FlightAware ADS-B
Mon 09:16:00 AM 32.5754 127.5568 255° West  Level Estimated
Mon 09:17:00 AM 32.5441 127.4164 255° West  Level Estimated
Mon 09:18:00 AM 32.5126 127.2760 255° West  Level Estimated
Mon 09:19:00 AM 32.4810 127.1357 255° West  Level Estimated
Mon 09:20:00 AM 32.4493 126.9956 255° West  Level Estimated
Mon 09:21:00 AM 32.4173 126.8555 255° West  Level Estimated
Mon 09:22:00 AM 32.3853 126.7156 255° West  Level Estimated
Mon 09:23:00 AM 32.3530 126.5757 255° West  Level Estimated
Mon 09:24:00 AM 32.3206 126.4359 255° West  Level Estimated
Mon 09:25:00 AM 32.2881 126.2962 255° West  Level Estimated
Mon 09:26:00 AM 32.2554 126.1567 255° West  Level Estimated
Mon 09:27:00 AM 32.2225 126.0172 254° West  Level Estimated
Mon 09:28:00 AM 32.1898 125.8789 254° West  Level Estimated
Mon 09:29:00 AM 32.1569 125.7407 254° West  Level Estimated
Mon 09:30:00 AM 32.1238 125.6025 254° West  Level Estimated
Mon 09:31:00 AM 32.0906 125.4645 254° West  Level Estimated
Mon 09:32:00 AM 32.0572 125.3266 254° West  Level Estimated
Mon 09:33:00 AM 32.0237 125.1888 254° West  Level Estimated
Mon 09:34:00 AM 31.9901 125.0511 254° West  Level Estimated
Mon 09:35:00 AM 31.9563 124.9135 254° West  Level Estimated
Mon 09:36:00 AM 31.9223 124.7760 254° West  Level Estimated
Mon 09:37:00 AM 31.8882 124.6386 254° West  Level Estimated
Mon 09:38:00 AM 31.8540 124.5013 254° West  Level Estimated
Mon 09:39:00 AM 31.8196 124.3640 254° West  Level Estimated
Mon 09:40:00 AM 31.7850 124.2269 254° West  Level Estimated
Mon 09:41:00 AM 31.7504 124.0899 253° West  Level Estimated
Mon 09:42:00 AM 31.7155 123.9530 253° West  Level Estimated
Mon 09:43:00 AM 31.6805 123.8163 253° West  Level Estimated
Mon 09:44:00 AM 31.6454 123.6796 253° West  Level Estimated
Mon 09:45:00 AM 31.6101 123.5430 253° West  Level Estimated
Mon 09:46:00 AM 31.5747 123.4065 253° West  Level Estimated
Mon 09:47:00 AM 31.5392 123.2701 253° West  Level Estimated
Mon 09:48:00 AM 31.5035 123.1338 253° West  Level Estimated
Mon 09:49:00 AM 31.4676 122.9977 253° West  Level Estimated
Mon 09:50:00 AM 31.4316 122.8616 253° West  Level Estimated
Mon 09:50:33 AM 31.1410 122.5240 253° West 340 391 10,400  Level FlightAware ADS-B
Mon 09:51:00 AM 31.3955 122.7256 253° West  Level Estimated
Mon 09:51:15 AM 31.1040 122.4660 233° Southwest 324 373 10,000  Level FlightAware ADS-B
Mon 09:52:08 AM 31.0610 122.3960 234° Southwest 282 325 8,500 -1,519 Descending FlightAware ADS-B
Mon 09:52:34 AM 31.0450 122.3690 235° Southwest 264 304 8,000 -1,200 Descending FlightAware ADS-B
Mon 09:53:03 AM 31.0230 122.3320 235° Southwest 242 278 7,400 -915 Descending FlightAware ADS-B
Mon 09:53:33 AM 31.0030 122.2990 235° Southwest 249 287 7,100 -321 Descending FlightAware ADS-B
Mon 09:53:59 AM 30.9880 122.2740 235° Southwest 241 277 7,100  Level FlightAware ADS-B
Mon 09:54:23 AM 30.9720 122.2480 234° Southwest 238 274 7,100  Level FlightAware ADS-B
Mon 09:54:53 AM 30.9510 122.2130 235° Southwest 240 276 7,100  Level FlightAware ADS-B
Mon 09:55:25 AM 30.9340 122.1840 236° Southwest 239 275 7,100  Level FlightAware ADS-B
Mon 09:55:52 AM 30.9140 122.1520 234° Southwest 238 274 7,100 -750 Level FlightAware ADS-B
Mon 09:56:21 AM 30.8940 122.1200 234° Southwest 236 272 6,400 -1,385 Descending FlightAware ADS-B
Mon 09:56:31 AM 30.8880 122.1100 235° Southwest 236 272 6,200 -1,200 Descending FlightAware ADS-B
Mon 09:57:01 AM 30.8680 122.0790 233° Southwest 233 268 5,600 -1,200 Descending FlightAware ADS-B
Mon 09:57:31 AM 30.8480 122.0470 234° Southwest 233 268 5,000 -1,309 Descending FlightAware ADS-B
Mon 09:57:56 AM 30.8350 122.0200 241° Southwest 234 269 4,400 -1,320 Descending FlightAware ADS-B
Mon 09:58:21 AM 30.8400 121.9920 282° West 213 245 3,900 -1,309 Descending FlightAware ADS-B
Mon 09:58:51 AM 30.8570 121.9620 303° West 213 245 3,200 -1,406 Descending FlightAware ADS-B
Mon 09:59:25 AM 30.8750 121.9280 302° West 205 236 2,400 -1,000 Descending FlightAware ADS-B
Mon 09:59:51 AM 30.8930 121.9120 323° Northwest 174 200 2,200 -235 Descending FlightAware ADS-B
Mon 10:00:16 AM 30.9100 121.9050 341° North 156 180 2,200  Level FlightAware ADS-B
Mon 10:00:45 AM 30.9330 121.8970 343° North 154 177 2,200  Level FlightAware ADS-B
Mon 10:01:16 AM 30.9550 121.8890 343° North 158 182 2,200  Level FlightAware ADS-B
Mon 10:01:39 AM 30.9650 121.8850 341° North 156 180 2,200  Level FlightAware ADS-B
Mon 10:02:11 AM 30.9950 121.8740 343° North 156 180 2,200  Level FlightAware ADS-B
Mon 10:02:21 AM 31.0010 121.8710 337° Northwest 157 181 2,200  Level FlightAware ADS-B
Mon 10:02:51 AM 31.0230 121.8630 343° North 154 177 2,200 -305 Level FlightAware ADS-B
Mon 10:03:20 AM 31.0430 121.8560 343° North 139 160 1,900 -700 Descending FlightAware ADS-B
Mon 10:03:51 AM 31.0610 121.8490 342° North 137 158 1,500 -750 Descending FlightAware ADS-B
Mon 10:04:16 AM 31.0780 121.8420 341° North 135 155 1,200 -764 Descending FlightAware ADS-B
Mon 10:04:46 AM 31.0970 121.8350 342° North 140 161 800 -764 Descending FlightAware ADS-B
Mon 10:05:11 AM 31.1120 121.8290 341° North 141 162 500 -429 Descending FlightAware ADS-B
Mon 10:05:42 AM 31.1300 121.8220 342° North 140 161 400 -194 Descending FlightAware ADS-B

Login

Don't have an account? Register now (free) for customized features, flight alerts, and more!